createdAt,value
2022-09-28T00:01:43.958Z,97.97
2022-09-28T00:04:11.666Z,97.60
2022-09-28T00:06:38.365Z,97.50
2022-09-28T00:09:05.001Z,97.21
2022-09-28T00:11:31.507Z,97.39
2022-09-28T00:14:02.299Z,97.44
2022-09-28T00:16:32.800Z,97.04
2022-09-28T00:19:00.159Z,96.80
2022-09-28T00:21:29.180Z,96.83
2022-09-28T00:24:17.090Z,96.60
2022-09-28T00:26:47.012Z,96.74
2022-09-28T00:29:23.396Z,96.94
2022-09-28T00:32:03.283Z,96.90
2022-09-28T00:34:39.002Z,97.05
2022-09-28T00:37:08.762Z,97.09
2022-09-28T00:39:37.173Z,97.28
2022-09-28T00:42:03.877Z,97.49
2022-09-28T00:44:40.713Z,97.37
2022-09-28T00:47:19.471Z,97.62
2022-09-28T00:50:02.595Z,98.08
2022-09-28T00:52:35.924Z,98.13
2022-09-28T00:55:06.627Z,98.20
2022-09-28T00:57:34.207Z,98.03
2022-09-28T01:00:01.900Z,97.97
2022-09-28T01:02:28.450Z,97.78
2022-09-28T01:04:57.132Z,97.72
2022-09-28T01:07:23.784Z,97.63
2022-09-28T01:09:51.104Z,97.65
2022-09-28T01:12:17.762Z,97.40
2022-09-28T01:14:44.802Z,97.25
2022-09-28T01:17:16.779Z,96.73
2022-09-28T01:20:20.774Z,96.58
2022-09-28T01:22:55.315Z,96.52
2022-09-28T01:25:28.931Z,96.38
2022-09-28T01:28:04.281Z,96.28
2022-09-28T01:30:36.375Z,95.98
2022-09-28T01:33:10.834Z,95.59
2022-09-28T01:35:44.838Z,95.27
2022-09-28T01:38:33.604Z,94.93
2022-09-28T01:41:00.626Z,94.79
2022-09-28T01:43:28.780Z,94.54
2022-09-28T01:46:06.754Z,94.31
2022-09-28T01:48:42.087Z,94.18
2022-09-28T01:51:15.875Z,93.92
2022-09-28T01:53:49.076Z,94.06
2022-09-28T01:56:24.939Z,94.02
2022-09-28T01:59:01.311Z,93.94
2022-09-28T02:01:37.161Z,93.79
2022-09-28T02:04:16.858Z,93.36
2022-09-28T02:06:50.659Z,93.36
2022-09-28T02:09:23.116Z,93.01
2022-09-28T02:11:59.946Z,92.94
2022-09-28T02:14:28.680Z,92.71
2022-09-28T02:16:57.556Z,92.83
2022-09-28T02:19:27.347Z,92.56
2022-09-28T02:22:23.072Z,92.27
2022-09-28T02:24:59.530Z,92.40
2022-09-28T02:27:50.448Z,92.58
2022-09-28T02:30:17.958Z,92.22
2022-09-28T02:32:48.435Z,92.20
2022-09-28T02:35:17.413Z,92.26
2022-09-28T02:37:45.002Z,92.39
2022-09-28T02:40:25.472Z,92.37
2022-09-28T02:43:15.966Z,92.14
2022-09-28T02:46:01.994Z,92.04
2022-09-28T02:48:43.701Z,91.98
2022-09-28T02:51:20.105Z,92.06
2022-09-28T02:54:18.821Z,92.19
2022-09-28T02:56:56.007Z,92.04
2022-09-28T02:59:37.239Z,91.85
2022-09-28T03:02:25.244Z,91.83
2022-09-28T03:05:01.230Z,91.76
2022-09-28T03:07:33.751Z,91.57
2022-09-28T03:10:17.739Z,91.57
2022-09-28T03:12:47.020Z,91.77
2022-09-28T03:15:19.431Z,91.83
2022-09-28T03:17:46.311Z,92.04
2022-09-28T03:20:12.826Z,91.88
2022-09-28T03:22:39.611Z,92.02
2022-09-28T03:25:07.355Z,92.12
2022-09-28T03:27:34.025Z,92.14
2022-09-28T03:30:00.618Z,98.78
2022-09-28T03:32:27.084Z,91.41
2022-09-28T03:34:53.539Z,91.77
2022-09-28T03:37:20.127Z,91.82
2022-09-28T03:39:46.522Z,91.93
2022-09-28T03:42:12.961Z,91.72
2022-09-28T03:44:39.355Z,92.13
2022-09-28T03:47:08.086Z,92.28
2022-09-28T03:49:34.994Z,92.24
2022-09-28T03:52:02.112Z,92.31
2022-09-28T03:54:29.135Z,92.25
2022-09-28T03:56:55.665Z,92.22
2022-09-28T03:59:22.114Z,92.80
2022-09-28T04:01:50.295Z,93.46
2022-09-28T04:04:17.582Z,93.68
2022-09-28T04:06:44.613Z,93.91
2022-09-28T04:09:11.547Z,94.19
2022-09-28T04:11:53.150Z,93.83
2022-09-28T04:14:24.730Z,93.91
2022-09-28T04:16:54.702Z,94.36
2022-09-28T04:19:22.114Z,94.35
2022-09-28T04:21:50.959Z,94.58
2022-09-28T04:24:18.233Z,94.59
2022-09-28T04:26:44.663Z,94.40
2022-09-28T04:29:17.573Z,94.35
2022-09-28T04:31:49.882Z,94.52
2022-09-28T04:34:21.487Z,94.90
2022-09-28T04:36:48.645Z,95.29
2022-09-28T04:39:17.581Z,95.71
2022-09-28T04:41:44.061Z,96.42
2022-09-28T04:44:10.528Z,96.63
2022-09-28T04:46:36.934Z,97.01
2022-09-28T04:49:03.532Z,97.15
2022-09-28T04:51:33.576Z,97.34
2022-09-28T04:54:00.001Z,97.53
2022-09-28T04:56:26.566Z,97.55
2022-09-28T04:58:53.110Z,98.29
2022-09-28T05:01:23.530Z,98.67
2022-09-28T05:03:50.984Z,99.14
2022-09-28T05:06:17.928Z,99.54
2022-09-28T05:08:46.692Z,99.64
2022-09-28T05:11:14.248Z,100.00
2022-09-28T05:13:45.556Z,100.00
2022-09-28T05:16:15.671Z,100.00
2022-09-28T05:18:42.619Z,100.00
2022-09-28T05:21:11.307Z,100.00
2022-09-28T05:23:37.736Z,100.00
2022-09-28T05:26:04.411Z,100.00
2022-09-28T05:28:32.820Z,100.00
2022-09-28T05:31:03.665Z,100.00
2022-09-28T05:33:31.304Z,100.00
2022-09-28T05:36:01.321Z,100.00
2022-09-28T05:38:29.201Z,100.00
2022-09-28T05:40:56.032Z,100.00
2022-09-28T05:43:22.667Z,100.00
2022-09-28T05:45:53.035Z,100.00
2022-09-28T05:48:22.005Z,100.00
2022-09-28T05:50:52.630Z,100.00
2022-09-28T05:53:19.456Z,100.00
2022-09-28T05:55:45.978Z,100.00
2022-09-28T05:58:12.647Z,100.00
2022-09-28T06:00:39.349Z,100.00
2022-09-28T06:03:09.485Z,100.00
2022-09-28T06:05:37.359Z,100.00
2022-09-28T06:08:05.173Z,100.00
2022-09-28T06:10:32.856Z,100.00
2022-09-28T06:12:59.504Z,100.00
2022-09-28T06:15:28.912Z,100.00
2022-09-28T06:18:06.044Z,100.00
2022-09-28T06:20:37.617Z,100.00
2022-09-28T06:23:04.552Z,100.00
2022-09-28T06:25:30.984Z,100.00
2022-09-28T06:28:01.957Z,100.00
2022-09-28T06:30:30.419Z,100.00
2022-09-28T06:32:58.983Z,100.00
2022-09-28T06:35:27.976Z,100.00
2022-09-28T06:37:54.396Z,100.00
2022-09-28T06:40:21.750Z,100.00
2022-09-28T06:43:09.903Z,100.00
2022-09-28T06:45:37.077Z,100.00
2022-09-28T06:48:04.351Z,100.00
2022-09-28T06:50:37.370Z,100.00
2022-09-28T06:53:06.707Z,100.00
2022-09-28T06:55:33.414Z,100.00
2022-09-28T06:58:02.141Z,100.00
2022-09-28T07:00:31.187Z,100.00
2022-09-28T07:02:57.932Z,100.00
2022-09-28T07:05:27.295Z,100.00
2022-09-28T07:07:55.280Z,100.00
2022-09-28T07:10:28.349Z,100.00
2022-09-28T07:12:56.795Z,100.00
2022-09-28T07:15:24.661Z,100.00
2022-09-28T07:18:02.459Z,100.00
2022-09-28T07:20:30.518Z,100.00
2022-09-28T07:23:14.293Z,100.00
2022-09-28T07:25:47.700Z,100.00
2022-09-28T07:28:14.384Z,100.00
2022-09-28T07:30:41.110Z,100.00
2022-09-28T07:33:10.822Z,100.00
2022-09-28T07:35:37.302Z,100.00
2022-09-28T07:38:07.870Z,100.00
2022-09-28T07:40:54.176Z,100.00
2022-09-28T07:43:21.844Z,100.00
2022-09-28T07:45:54.139Z,100.00
2022-09-28T07:48:21.263Z,100.00
2022-09-28T07:50:57.127Z,100.00
2022-09-28T07:53:25.451Z,100.00
2022-09-28T07:55:56.152Z,100.00
2022-09-28T07:58:22.738Z,100.00
2022-09-28T08:00:50.340Z,100.00
2022-09-28T08:03:18.509Z,100.00
2022-09-28T08:05:46.706Z,100.00
2022-09-28T08:08:13.821Z,100.00
2022-09-28T08:10:46.585Z,100.00
2022-09-28T08:13:15.018Z,100.00
2022-09-28T08:15:42.144Z,100.00
2022-09-28T08:18:08.670Z,100.00
2022-09-28T08:20:53.663Z,100.00
2022-09-28T08:23:20.502Z,100.00
2022-09-28T08:25:54.066Z,100.00
2022-09-28T08:28:23.008Z,100.00
2022-09-28T08:30:50.226Z,100.00
2022-09-28T08:33:21.171Z,100.00
2022-09-28T08:35:48.205Z,100.00
2022-09-28T08:38:15.220Z,100.00
2022-09-28T08:40:58.000Z,100.00
2022-09-28T08:43:41.539Z,100.00
2022-09-28T08:46:10.404Z,100.00
2022-09-28T08:49:01.273Z,100.00
2022-09-28T08:51:41.384Z,100.00
2022-09-28T08:54:16.844Z,100.00
2022-09-28T08:56:49.725Z,100.00
2022-09-28T08:59:43.261Z,100.00
2022-09-28T09:02:18.069Z,100.00
2022-09-28T09:04:44.604Z,100.00
2022-09-28T09:07:29.636Z,100.00
2022-09-28T09:10:19.263Z,100.00
2022-09-28T09:12:54.348Z,100.00
2022-09-28T09:15:26.777Z,100.00
2022-09-28T09:18:17.819Z,100.00
2022-09-28T09:20:57.127Z,100.00
2022-09-28T09:23:43.161Z,100.00
2022-09-28T09:26:18.338Z,100.00
2022-09-28T09:29:13.645Z,100.00
2022-09-28T09:32:27.567Z,100.00
2022-09-28T09:35:26.654Z,100.00
2022-09-28T09:38:17.341Z,100.00
2022-09-28T09:41:09.449Z,100.00
2022-09-28T09:43:58.894Z,100.00
2022-09-28T09:46:57.648Z,100.00
2022-09-28T09:49:36.077Z,100.00
2022-09-28T09:52:23.974Z,100.00
2022-09-28T09:55:04.374Z,100.00
2022-09-28T09:57:40.500Z,100.00
2022-09-28T10:00:14.567Z,100.00
2022-09-28T10:02:43.008Z,100.00
2022-09-28T10:05:12.405Z,100.00
2022-09-28T10:08:04.006Z,100.00
2022-09-28T10:10:40.434Z,100.00
2022-09-28T10:13:08.591Z,100.00
2022-09-28T10:15:35.354Z,100.00
2022-09-28T10:18:09.507Z,100.00
2022-09-28T10:20:39.148Z,100.00
2022-09-28T10:23:13.158Z,100.00
2022-09-28T10:25:40.550Z,100.00
2022-09-28T10:28:14.236Z,100.00
2022-09-28T10:30:42.699Z,100.00
2022-09-28T10:33:29.184Z,100.00
2022-09-28T10:35:55.668Z,100.00
2022-09-28T10:38:22.890Z,100.00
2022-09-28T10:41:00.576Z,100.00
2022-09-28T10:43:30.535Z,100.00
2022-09-28T10:46:09.808Z,100.00
2022-09-28T10:48:57.739Z,100.00
2022-09-28T10:51:47.226Z,100.00
2022-09-28T10:54:22.176Z,100.00
2022-09-28T10:56:50.142Z,100.00
2022-09-28T10:59:42.996Z,100.00
2022-09-28T11:02:36.830Z,100.00
2022-09-28T11:05:06.394Z,100.00
2022-09-28T11:07:43.918Z,100.00
2022-09-28T11:10:21.365Z,100.00
2022-09-28T11:12:49.693Z,100.00
2022-09-28T11:15:30.722Z,100.00
2022-09-28T11:18:17.278Z,100.00
2022-09-28T11:20:45.539Z,100.00
2022-09-28T11:23:20.356Z,100.00
2022-09-28T11:26:07.364Z,100.00
2022-09-28T11:28:37.458Z,100.00
2022-09-28T11:31:07.118Z,100.00
2022-09-28T11:33:38.371Z,100.00
2022-09-28T11:36:13.978Z,100.00
2022-09-28T11:38:47.363Z,100.00
2022-09-28T11:41:51.536Z,100.00
2022-09-28T11:44:29.458Z,100.00
2022-09-28T11:47:22.660Z,100.00
2022-09-28T11:50:05.622Z,100.00
2022-09-28T11:53:10.135Z,100.00
2022-09-28T11:55:43.834Z,100.00
2022-09-28T11:58:19.247Z,100.00
2022-09-28T12:01:02.002Z,100.00
2022-09-28T12:03:36.085Z,100.00
2022-09-28T12:06:08.683Z,100.00
2022-09-28T12:08:40.037Z,100.00
2022-09-28T12:11:21.997Z,100.00
2022-09-28T12:13:52.571Z,100.00
2022-09-28T12:17:03.712Z,100.00
2022-09-28T12:19:25.940Z,100.00
2022-09-28T12:22:00.243Z,100.00
2022-09-28T12:25:03.680Z,100.00
2022-09-28T12:27:40.378Z,100.00
2022-09-28T12:30:19.918Z,100.00
2022-09-28T12:32:59.155Z,100.00
2022-09-28T12:36:00.963Z,100.00
2022-09-28T12:39:14.643Z,100.00
2022-09-28T12:41:51.375Z,100.00
2022-09-28T12:44:24.775Z,100.00
2022-09-28T12:47:28.847Z,100.00
2022-09-28T12:53:14.911Z,100.00
2022-09-28T12:55:56.648Z,100.00
2022-09-28T12:58:48.406Z,100.00
2022-09-28T13:01:52.009Z,100.00
2022-09-28T13:04:39.447Z,100.00
2022-09-28T13:07:13.267Z,100.00
2022-09-28T13:10:02.867Z,100.00
2022-09-28T13:13:04.715Z,100.00
2022-09-28T13:15:46.707Z,100.00
2022-09-28T13:18:20.588Z,100.00
2022-09-28T13:21:16.299Z,100.00
2022-09-28T13:23:45.219Z,100.00
2022-09-28T13:26:32.656Z,100.00
2022-09-28T13:29:10.465Z,100.00
2022-09-28T13:31:45.633Z,100.00
2022-09-28T13:34:20.466Z,100.00
2022-09-28T13:37:09.893Z,100.00
2022-09-28T13:39:45.439Z,100.00
2022-09-28T13:42:30.668Z,100.00
2022-09-28T13:45:20.954Z,100.00
2022-09-28T13:48:37.243Z,100.00
2022-09-28T13:51:07.146Z,100.00
2022-09-28T13:53:51.107Z,100.00
2022-09-28T13:56:20.654Z,100.00
2022-09-28T13:58:57.782Z,100.00
2022-09-28T14:01:31.590Z,100.00
2022-09-28T14:04:20.368Z,100.00
2022-09-28T14:07:09.262Z,100.00
2022-09-28T14:10:07.792Z,100.00
2022-09-28T14:12:34.220Z,100.00
2022-09-28T14:15:01.501Z,100.00
2022-09-28T14:17:28.073Z,100.00
2022-09-28T14:20:01.314Z,100.00
2022-09-28T14:22:47.105Z,100.00
2022-09-28T14:25:35.976Z,100.00
2022-09-28T14:28:23.317Z,100.00
2022-09-28T14:30:54.396Z,100.00
2022-09-28T14:33:20.796Z,100.00
2022-09-28T14:35:58.319Z,100.00
2022-09-28T14:38:49.378Z,100.00
2022-09-28T14:41:38.396Z,100.00
2022-09-28T14:44:07.933Z,100.00
2022-09-28T14:46:37.289Z,100.00
2022-09-28T14:49:24.852Z,100.00
2022-09-28T14:51:54.371Z,100.00
2022-09-28T14:54:25.443Z,100.00
2022-09-28T14:57:08.058Z,100.00
2022-09-28T14:59:42.788Z,100.00
2022-09-28T15:02:15.387Z,100.00
2022-09-28T15:04:46.930Z,100.00
2022-09-28T15:07:22.432Z,100.00
2022-09-28T15:09:51.153Z,100.00
2022-09-28T15:12:22.115Z,100.00
2022-09-28T15:15:04.420Z,100.00
2022-09-28T15:17:39.413Z,100.00
2022-09-28T15:20:29.959Z,100.00
2022-09-28T15:22:58.665Z,100.00
2022-09-28T15:25:27.848Z,100.00
2022-09-28T15:28:00.974Z,100.00
2022-09-28T15:30:27.473Z,100.00
2022-09-28T15:32:56.827Z,100.00
2022-09-28T15:35:27.511Z,100.00
2022-09-28T15:37:55.074Z,100.00
2022-09-28T15:40:38.452Z,100.00
2022-09-28T15:43:30.158Z,100.00
2022-09-28T15:46:13.192Z,100.00
2022-09-28T15:48:53.228Z,100.00
2022-09-28T15:51:21.331Z,100.00
2022-09-28T15:54:19.281Z,100.00
2022-09-28T15:57:01.930Z,100.00
2022-09-28T15:59:39.646Z,100.00
2022-09-28T16:02:24.434Z,100.00
2022-09-28T16:04:54.112Z,100.00
2022-09-28T16:07:40.638Z,100.00
2022-09-28T16:10:13.383Z,100.00
2022-09-28T16:12:39.715Z,100.00
2022-09-28T16:15:27.029Z,100.00
2022-09-28T16:18:02.615Z,100.00
2022-09-28T16:20:42.532Z,100.00
2022-09-28T16:23:22.238Z,100.00
2022-09-28T16:25:59.429Z,100.00
2022-09-28T16:28:35.016Z,100.00
2022-09-28T16:31:07.709Z,100.00
2022-09-28T16:34:09.569Z,100.00
2022-09-28T16:36:47.279Z,100.00
2022-09-28T16:39:16.564Z,100.00
2022-09-28T16:41:51.507Z,100.00
2022-09-28T16:44:29.910Z,100.00
2022-09-28T16:46:58.397Z,100.00
2022-09-28T16:49:25.533Z,100.00
2022-09-28T16:51:52.612Z,100.00
2022-09-28T16:54:40.761Z,100.00
2022-09-28T16:57:08.187Z,100.00
2022-09-28T16:59:34.613Z,100.00
2022-09-28T17:02:01.185Z,100.00
2022-09-28T17:04:27.643Z,100.00
2022-09-28T17:06:55.691Z,100.00
2022-09-28T17:09:24.145Z,100.00
2022-09-28T17:11:56.620Z,100.00
2022-09-28T17:14:24.062Z,100.00
2022-09-28T17:17:13.780Z,100.00
2022-09-28T17:19:41.490Z,100.00
2022-09-28T17:22:11.131Z,100.00
2022-09-28T17:24:37.559Z,100.00
2022-09-28T17:27:06.877Z,100.00
2022-09-28T17:29:33.354Z,100.00
2022-09-28T17:31:59.807Z,100.00
2022-09-28T17:34:26.356Z,100.00
2022-09-28T17:36:52.852Z,100.00
2022-09-28T17:39:19.677Z,100.00
2022-09-28T17:41:46.851Z,100.00
2022-09-28T17:44:16.629Z,100.00
2022-09-28T17:46:47.382Z,100.00
2022-09-28T17:49:14.178Z,100.00
2022-09-28T17:51:40.991Z,100.00
2022-09-28T17:54:08.024Z,100.00
2022-09-28T17:56:35.284Z,100.00
2022-09-28T17:59:06.895Z,100.00
2022-09-28T18:01:39.708Z,100.00
2022-09-28T18:04:08.717Z,100.00
2022-09-28T18:06:37.420Z,100.00
2022-09-28T18:09:04.880Z,100.00
2022-09-28T18:11:33.074Z,100.00
2022-09-28T18:13:59.563Z,100.00
2022-09-28T18:16:28.492Z,100.00
2022-09-28T18:18:58.070Z,100.00
2022-09-28T18:21:24.518Z,100.00
2022-09-28T18:23:50.948Z,100.00
2022-09-28T18:26:19.545Z,100.00
2022-09-28T18:28:46.007Z,100.00
2022-09-28T18:31:14.383Z,100.00
2022-09-28T18:33:51.530Z,100.00
2022-09-28T18:36:18.208Z,100.00
2022-09-28T18:38:46.125Z,100.00
2022-09-28T18:41:15.674Z,100.00
2022-09-28T18:43:48.851Z,100.00
2022-09-28T18:46:17.709Z,100.00
2022-09-28T18:48:44.328Z,100.00
2022-09-28T18:51:12.391Z,100.00
2022-09-28T18:53:39.866Z,100.00
2022-09-28T18:56:11.246Z,100.00
2022-09-28T18:58:39.118Z,100.00
2022-09-28T19:01:29.482Z,100.00
2022-09-28T19:04:00.115Z,100.00
2022-09-28T19:06:26.934Z,100.00
2022-09-28T19:08:55.633Z,100.00
2022-09-28T19:11:22.620Z,100.00
2022-09-28T19:13:49.084Z,100.00
2022-09-28T19:16:18.752Z,100.00
2022-09-28T19:18:45.340Z,100.00
2022-09-28T19:21:14.094Z,100.00
2022-09-28T19:23:44.717Z,100.00
2022-09-28T19:26:16.298Z,100.00
2022-09-28T19:28:43.116Z,100.00
2022-09-28T19:31:11.066Z,100.00
2022-09-28T19:33:38.927Z,100.00
2022-09-28T19:36:08.014Z,100.00
2022-09-28T19:38:36.559Z,100.00
2022-09-28T19:41:39.511Z,100.00
2022-09-28T19:44:13.072Z,100.00
2022-09-28T19:46:40.407Z,100.00
2022-09-28T19:49:13.350Z,100.00
2022-09-28T19:52:01.573Z,100.00
2022-09-28T19:54:33.131Z,100.00
2022-09-28T19:57:07.346Z,100.00
2022-09-28T19:59:34.190Z,100.00
2022-09-28T20:02:02.049Z,100.00
2022-09-28T20:04:29.012Z,100.00
2022-09-28T20:06:55.395Z,100.00
2022-09-28T20:09:21.853Z,100.00
2022-09-28T20:11:48.547Z,100.00
2022-09-28T20:14:16.232Z,100.00
2022-09-28T20:16:42.647Z,100.00
2022-09-28T20:19:09.103Z,100.00
2022-09-28T20:21:35.623Z,100.00
2022-09-28T20:24:02.238Z,100.00
2022-09-28T20:26:28.943Z,100.00
2022-09-28T20:28:55.395Z,100.00
2022-09-28T20:31:24.199Z,100.00
2022-09-28T20:33:51.759Z,100.00
2022-09-28T20:36:23.030Z,100.00
2022-09-28T20:38:53.917Z,100.00
2022-09-28T20:41:22.923Z,100.00
2022-09-28T20:43:55.454Z,100.00
2022-09-28T20:46:22.376Z,100.00
2022-09-28T20:48:55.011Z,100.00
2022-09-28T20:51:22.247Z,100.00
2022-09-28T20:53:57.207Z,100.00
2022-09-28T20:56:29.013Z,100.00
2022-09-28T20:58:55.878Z,100.00
2022-09-28T21:01:30.521Z,100.00
2022-09-28T21:03:59.280Z,100.00
2022-09-28T21:06:28.285Z,100.00
2022-09-28T21:08:54.961Z,100.00
2022-09-28T21:11:23.823Z,100.00
2022-09-28T21:14:01.606Z,100.00
2022-09-28T21:16:30.939Z,100.00
2022-09-28T21:18:57.458Z,100.00
2022-09-28T21:21:24.637Z,100.00
2022-09-28T21:23:57.841Z,100.00
2022-09-28T21:26:27.025Z,100.00
2022-09-28T21:29:01.643Z,100.00
2022-09-28T21:31:37.297Z,100.00
2022-09-28T21:34:04.735Z,100.00
2022-09-28T21:36:31.944Z,100.00
2022-09-28T21:38:58.396Z,100.00
2022-09-28T21:41:25.256Z,100.00
2022-09-28T21:43:52.048Z,100.00
2022-09-28T21:46:18.882Z,100.00
2022-09-28T21:48:45.434Z,100.00
2022-09-28T21:51:15.548Z,100.00
2022-09-28T21:53:42.723Z,100.00
2022-09-28T21:56:11.310Z,100.00
2022-09-28T21:58:38.291Z,100.00
2022-09-28T22:01:09.547Z,100.00
2022-09-28T22:03:36.830Z,100.00
2022-09-28T22:06:04.707Z,100.00
2022-09-28T22:08:31.434Z,100.00
2022-09-28T22:11:04.698Z,100.00
2022-09-28T22:13:36.696Z,100.00
2022-09-28T22:16:03.453Z,100.00
2022-09-28T22:18:31.779Z,100.00
2022-09-28T22:21:07.313Z,100.00
2022-09-28T22:23:34.551Z,100.00
2022-09-28T22:26:05.110Z,100.00
2022-09-28T22:28:31.682Z,100.00
2022-09-28T22:30:58.626Z,100.00
2022-09-28T22:33:26.110Z,100.00
2022-09-28T22:35:53.169Z,100.00
2022-09-28T22:38:20.688Z,100.00
2022-09-28T22:40:52.646Z,100.00
2022-09-28T22:43:19.110Z,100.00
2022-09-28T22:45:45.725Z,100.00
2022-09-28T22:48:13.066Z,100.00
2022-09-28T22:50:39.620Z,100.00
2022-09-28T22:53:06.335Z,100.00
2022-09-28T22:55:35.663Z,100.00
2022-09-28T22:58:02.118Z,100.00
2022-09-28T23:00:28.582Z,100.00
2022-09-28T23:02:55.008Z,100.00
2022-09-28T23:05:21.435Z,100.00
2022-09-28T23:07:47.822Z,100.00
2022-09-28T23:10:14.247Z,100.00
2022-09-28T23:12:40.753Z,100.00
2022-09-28T23:15:08.392Z,100.00
2022-09-28T23:17:34.955Z,100.00
2022-09-28T23:20:01.838Z,99.22
2022-09-28T23:22:28.217Z,98.81
2022-09-28T23:24:54.616Z,99.06
2022-09-28T23:27:21.034Z,99.56
2022-09-28T23:29:48.816Z,99.96
2022-09-28T23:32:19.155Z,100.00
2022-09-28T23:34:45.608Z,98.65
2022-09-28T23:37:12.003Z,100.00
2022-09-28T23:39:38.435Z,97.31
2022-09-28T23:42:04.935Z,97.66
2022-09-28T23:44:32.637Z,98.08
2022-09-28T23:46:59.079Z,98.58
2022-09-28T23:49:25.615Z,99.09
2022-09-28T23:51:52.029Z,99.39
2022-09-28T23:54:18.448Z,99.70
2022-09-28T23:56:45.044Z,99.71
2022-09-28T23:59:11.637Z,99.77
